This is the latest recevied weather packets stored in our database for station/object HS5NMF. If no packets are shown the sender has not sent any weather packets the latest 10 day(s).
| Time | Temp. | Humidity | Pressure | Rain* | Wind** | Luminosity | Snow |
|---|---|---|---|---|---|---|---|
| 1778194023 | 28.33° C | 92% | 977 hPa | - | - | 0 W/m² | - |
| 1778193696 | 28.33° C | 91% | 977 hPa | - | - | 0 W/m² | - |
| 1778193373 | 28.33° C | 89% | 977 hPa | - | - | 0 W/m² | - |
| 1778193046 | 28.33° C | 90% | 977 hPa | - | - | 0 W/m² | - |
| 1778192721 | 28.33° C | 90% | 977 hPa | - | - | 0 W/m² | - |
| 1778192396 | 28.33° C | 90% | 977 hPa | - | - | 0 W/m² | - |
| 1778192071 | 27.78° C | 91% | 977 hPa | - | - | 0 W/m² | - |
| 1778191747 | 28.33° C | 92% | 977 hPa | - | - | 0 W/m² | - |
| 1778191420 | 28.33° C | 88% | 977 hPa | - | - | 0 W/m² | - |
| 1778191094 | 28.33° C | 90% | 977 hPa | - | - | 0 W/m² | - |
| 1778190769 | 28.33° C | 90% | 977 hPa | - | - | 0 W/m² | - |
| 1778190447 | 28.89° C | 86% | 977 hPa | - | - | 0 W/m² | - |
| 1778190118 | 28.89° C | 86% | 977 hPa | - | - | 0 W/m² | - |
| 1778189793 | 28.89° C | 85% | 977 hPa | - | - | 0 W/m² | - |
| 1778189469 | 29.44° C | 83% | 976 hPa | - | - | 0 W/m² | - |
| 1778189144 | 28.89° C | 85% | 976 hPa | - | - | 0 W/m² | - |
| 1778188823 | 29.44° C | 84% | 976 hPa | - | - | 0 W/m² | - |
| 1778188494 | 29.44° C | 84% | 976 hPa | - | - | 0 W/m² | - |
| 1778188172 | 29.44° C | 83% | 976 hPa | - | - | 0 W/m² | - |
| 1778187847 | 28.89° C | 84% | 976 hPa | - | - | 0 W/m² | - |
| 1778187526 | 29.44° C | 83% | 976 hPa | - | - | 0 W/m² | - |
| 1778187198 | 28.89° C | 83% | 976 hPa | - | - | 0 W/m² | - |
| 1778186873 | 28.89° C | 84% | 976 hPa | - | - | 0 W/m² | - |
| 1778186549 | 29.44° C | 82% | 976 hPa | - | - | 0 W/m² | - |
| 1778186223 | 28.89° C | 84% | 976 hPa | - | - | 0 W/m² | - |
* Rain since midnight (hover to see other rain measurements)
** Current wind speed in m/s (hover to see current wind gust speed)